Overview Statistics Trail Chart Weather Telemetry Raw packets
 

This is the latest recevied telemetry packets stored in our database for station/object IU5IWS-13. If no packets are shown the sender has not sent any telemetry packets the latest 10 day(s).

Telemetry packets is used to share measurements like repeteater parameters, battery voltage, radiation readings (or any other measurements).

<< 1 2 3 4 >>
Time Press* Temp.in* Hum* QNH* Temp.out*
1788565957 1018.1 hPa 38.1 C deg 31.1 % 1020.1 hPa 0 C deg
1788564122 1018.2 hPa 38 C deg 31.2 % 1020.2 hPa 0 C deg
1788562288 1018.2 hPa 37.8 C deg 31.5 % 1020.2 hPa 0 C deg
1788560457 1018.3 hPa 37.8 C deg 31.5 % 1020.3 hPa 0 C deg
1788558625 1018.3 hPa 37.9 C deg 31.5 % 1020.3 hPa 0 C deg
1788556803 1018.3 hPa 38 C deg 31.2 % 1020.3 hPa 0 C deg
1788554983 1018.4 hPa 38 C deg 31.2 % 1020.4 hPa 0 C deg
1788553134 1018.3 hPa 38 C deg 31.1 % 1020.3 hPa 0 C deg
1788549476 1018.3 hPa 38.1 C deg 30.9 % 1020.3 hPa 0 C deg
1788547646 1017.9 hPa 38.1 C deg 30.8 % 1019.9 hPa 0 C deg
1788545817 1017.7 hPa 38.1 C deg 30.9 % 1019.7 hPa 0 C deg
1788543989 1017.3 hPa 38.2 C deg 30.7 % 1019.3 hPa 0 C deg
1788542156 1017.4 hPa 38.2 C deg 30.7 % 1019.4 hPa 0 C deg
1788540326 1017.3 hPa 38.2 C deg 30.5 % 1019.3 hPa 0 C deg
1788538493 1017.5 hPa 38.1 C deg 30.7 % 1019.5 hPa 0 C deg
1788536663 1017.7 hPa 38.2 C deg 30.5 % 1019.7 hPa 0 C deg
1788534836 1017.6 hPa 38.1 C deg 30.6 % 1019.6 hPa 0 C deg
1788533004 1017.6 hPa 38.1 C deg 30.6 % 1019.6 hPa 0 C deg
1788531175 1017.7 hPa 37.9 C deg 31 % 1019.7 hPa 0 C deg
1788529346 1017.7 hPa 37.9 C deg 30.9 % 1019.7 hPa 0 C deg
1788527513 1017.9 hPa 37.9 C deg 31 % 1019.9 hPa 0 C deg
1788525683 1018 hPa 37.8 C deg 31.1 % 1020 hPa 0 C deg
1788523852 1018.2 hPa 37.8 C deg 31 % 1020.2 hPa 0 C deg
1788522034 1018.1 hPa 37.8 C deg 30.9 % 1020.1 hPa 0 C deg
1788520204 1018.2 hPa 38.1 C deg 30.5 % 1020.2 hPa 0 C deg
*Used Equation Coefficients:
Press: 0, 1, 0
Temp.in: 0, 1, 0
Hum: 0, 1, 0
QNH: 0, 1, 0
Temp.out: 0, 1, 0

  • The parameter names for the analog channels will be Value1, Value2, Value3 (up to Value5) if station has not sent a PARAM-packet that specifies the parameter names for each analog channel.
  • Each analog value is a decimal number between 000 and 255 (according to APRS specifications). The receiver use the telemetry equation coefficientsto to restore the original sensor values. If no EQNS-packet with equation coefficients is sent we will show the values as is (this corresponds to the equation coefficients a=0, b=1 and c=0).
    The sent equation coefficients is used in the equation: a * value2 + b * value + c.
  • The units for the analog values will not be shown if station has not sent a UNIT-packet specifying what unit's to use.
  • The parameter names for the digital bits will be Bit1, Bit2, Bit3 (up to Bit8) if station has not sent a PARAM-packet that specifies the parameter names for each digital bit.
  • All bit labels will be named "On" if station has not sent a UNIT-packet that specifies the label of each bit.
  • A bit is considered to be On when the bit is 1 if station has not sent a BITS-packet that specifies another "Bit sense" (a BITS-packet specify the state of the bits that match the BIT labels)